Time;durP1;ratioP1;P1;durP2;ratioP2;P2;SDS_P1;SDS_P2;PMS_P1;PMS_P2;Temp;Humidity;BMP_temperature;BMP_pressure;BME280_temperature;BME280_humidity;BME280_pressure;Samples;Min_cycle;Max_cycle;Signal;HPM_P1;HPM_P2
2022/01/19 00:01:38;;;;;;;105.30;35.33;;;;;;;3.44;100.00;103259.97;5014986;28;20052;-71
2022/01/19 00:04:04;;;;;;;123.78;34.53;;;;;;;3.36;100.00;103252.84;5014613;28;20131;-71
2022/01/19 00:06:29;;;;;;;136.20;36.22;;;;;;;3.37;100.00;103247.28;5014622;28;20055;-72
2022/01/19 00:08:55;;;;;;;118.32;36.45;;;;;;;3.28;100.00;103250.28;5014330;28;20045;-70
2022/01/19 00:11:20;;;;;;;104.70;35.38;;;;;;;3.36;100.00;103258.25;5014345;28;20144;-71
2022/01/19 00:13:46;;;;;;;113.25;36.08;;;;;;;3.29;100.00;103250.13;5014831;28;20465;-71
2022/01/19 00:16:11;;;;;;;166.00;41.78;;;;;;;3.17;100.00;103259.75;5014790;28;20045;-71
2022/01/19 00:18:37;;;;;;;262.80;48.08;;;;;;;3.10;100.00;103250.78;5014525;28;20424;-71
2022/01/19 00:21:03;;;;;;;165.50;39.28;;;;;;;3.19;100.00;103252.31;5013443;28;20048;-71
2022/01/19 00:23:28;;;;;;;345.77;49.28;;;;;;;3.38;100.00;103251.63;5014645;28;20482;-71
2022/01/19 00:25:56;;;;;;;373.17;49.92;;;;;;;3.14;100.00;103244.81;5012622;28;20568;-71
2022/01/19 00:28:22;;;;;;;417.15;53.42;;;;;;;3.09;100.00;103233.78;5013027;28;20076;-71
2022/01/19 00:30:47;;;;;;;476.40;54.03;;;;;;;3.00;100.00;103215.25;5013980;28;20041;-71
2022/01/19 00:33:13;;;;;;;345.67;44.75;;;;;;;3.17;100.00;103205.81;5012408;28;20458;-71
2022/01/19 00:35:39;;;;;;;277.70;42.70;;;;;;;3.30;100.00;103188.91;5011840;28;20040;-71
2022/01/19 00:38:07;;;;;;;484.40;51.47;;;;;;;3.15;100.00;103176.38;5011883;28;20438;-71
2022/01/19 00:40:32;;;;;;;295.63;39.60;;;;;;;3.17;100.00;103163.53;5014456;28;20472;-71
2022/01/19 00:42:58;;;;;;;452.42;49.05;;;;;;;3.10;100.00;103141.06;5013833;28;20056;-71
2022/01/19 00:45:23;;;;;;;423.67;46.42;;;;;;;3.13;100.00;103146.06;5011937;28;20144;-71
2022/01/19 00:47:49;;;;;;;353.60;45.67;;;;;;;3.18;100.00;103149.00;5012380;28;20155;-71
2022/01/19 00:50:19;;;;;;;284.55;40.20;;;;;;;3.10;100.00;103154.56;5027152;28;20040;-71
2022/01/19 00:52:44;;;;;;;377.92;46.20;;;;;;;2.95;100.00;103153.81;5033837;28;20456;-71
2022/01/19 00:55:11;;;;;;;410.38;47.97;;;;;;;2.93;100.00;103155.88;5033323;28;20037;-71
2022/01/19 00:57:38;;;;;;;473.13;57.22;;;;;;;2.93;100.00;103167.47;5031182;28;20072;-71
2022/01/19 01:00:05;;;;;;;280.98;42.88;;;;;;;3.04;100.00;103168.00;4998908;28;20129;-71
2022/01/19 01:02:31;;;;;;;351.27;46.13;;;;;;;3.03;100.00;103167.16;5012124;28;20041;-71
2022/01/19 01:04:56;;;;;;;336.80;42.95;;;;;;;3.15;100.00;103154.81;5012752;28;20404;-71
2022/01/19 01:07:22;;;;;;;321.35;41.45;;;;;;;3.06;100.00;103145.22;5011172;28;20456;-71
2022/01/19 01:09:48;;;;;;;352.60;42.17;;;;;;;3.13;100.00;103146.06;5012353;28;20029;-71
2022/01/19 01:12:20;;;;;;;269.90;39.45;;;;;;;2.89;100.00;103135.75;5010593;28;20038;-72
2022/01/19 01:20:16;;;;;;;286.77;45.75;;;;;;;3.04;100.00;103104.13;5012943;28;20463;-71
2022/01/19 01:22:42;;;;;;;151.32;33.97;;;;;;;3.13;100.00;103092.16;5011002;28;20394;-71
2022/01/19 01:25:08;;;;;;;169.70;35.95;;;;;;;3.02;100.00;103105.34;5013329;28;20056;-71
2022/01/19 01:27:33;;;;;;;213.45;36.45;;;;;;;2.99;100.00;103106.56;5010676;28;20029;-71
2022/01/19 01:29:59;;;;;;;167.82;35.25;;;;;;;3.08;100.00;103105.38;5010930;28;20131;-71
2022/01/19 01:32:24;;;;;;;197.52;36.50;;;;;;;2.90;100.00;103105.06;5010904;28;20536;-69
2022/01/19 01:34:51;;;;;;;154.75;33.97;;;;;;;3.01;100.00;103106.41;5011321;28;20041;-70
2022/01/19 01:37:17;;;;;;;144.80;32.45;;;;;;;3.15;100.00;103100.88;5010750;28;20045;-70
2022/01/19 01:39:43;;;;;;;140.00;33.38;;;;;;;3.24;100.00;103081.84;5011426;28;20509;-71
2022/01/19 01:42:14;;;;;;;86.10;30.23;;;;;;;3.28;100.00;103058.84;5010707;28;20053;-70
2022/01/19 01:44:44;;;;;;;99.43;31.95;;;;;;;3.24;100.00;103055.72;5011415;28;20184;-71
2022/01/19 01:47:11;;;;;;;127.05;33.05;;;;;;;3.00;100.00;103048.97;5011380;28;20107;-71
2022/01/19 01:54:51;;;;;;;77.53;28.83;;;;;;;3.18;100.00;103046.56;5031228;28;20113;-71
2022/01/19 01:57:17;;;;;;;90.22;31.88;;;;;;;2.93;100.00;103050.78;5031012;28;20048;-71
2022/01/19 01:59:42;;;;;;;76.07;28.08;;;;;;;2.93;100.00;103048.06;5020192;28;20048;-71
2022/01/19 02:02:14;;;;;;;75.95;29.83;;;;;;;2.76;100.00;103057.50;5013490;28;20050;-71
2022/01/19 02:04:41;;;;;;;71.75;28.90;;;;;;;2.87;100.00;103049.69;5013021;28;20143;-71
2022/01/19 02:07:40;;;;;;;78.55;30.02;;;;;;;2.87;100.00;103035.41;5012045;28;20091;-71
2022/01/19 02:10:08;;;;;;;80.20;28.38;;;;;;;2.93;100.00;103029.22;5012960;28;20421;-70
2022/01/19 02:23:44;;;;;;;97.78;33.35;;;;;;;2.90;100.00;102976.53;5012590;28;20456;-71
2022/01/19 02:26:16;;;;;;;97.22;33.33;;;;;;;2.94;100.00;102974.31;5012296;28;20471;-71
2022/01/19 02:29:09;;;;;;;89.28;32.03;;;;;;;3.08;100.00;102967.91;5010703;28;20091;-71
2022/01/19 02:40:16;;;;;;;84.85;30.85;;;;;;;2.98;100.00;102943.22;5014308;28;20152;-71
2022/01/19 02:50:51;;;;;;;85.45;30.67;;;;;;;2.25;100.00;102911.31;5033875;28;20036;-71
2022/01/19 02:53:16;;;;;;;89.18;31.38;;;;;;;2.38;100.00;102896.28;5034256;28;20470;-71
2022/01/19 02:55:42;;;;;;;90.22;32.42;;;;;;;2.24;100.00;102890.84;5035822;28;20182;-70
2022/01/19 02:58:07;;;;;;;88.53;32.15;;;;;;;2.30;100.00;102877.59;5035563;28;20116;-71
2022/01/19 03:08:41;;;;;;;90.32;34.80;;;;;;;2.11;100.00;102866.50;5014947;28;20049;-71
2022/01/19 03:09:01;;;;;;;109.53;39.78;;;;;;;2.15;100.00;102851.66;5032531;28;20063;-70
2022/01/19 03:11:27;;;;;;;132.82;41.95;;;;;;;2.17;100.00;102838.81;5035650;28;20528;-70
2022/01/19 03:13:53;;;;;;;119.38;40.22;;;;;;;2.21;100.00;102829.31;5033364;28;20590;-70
2022/01/19 03:16:20;;;;;;;135.00;41.33;;;;;;;2.23;100.00;102824.53;5032904;28;20037;-70
2022/01/19 03:18:49;;;;;;;123.18;40.00;;;;;;;1.90;100.00;102820.84;5032757;28;20351;-70
2022/01/19 03:21:16;;;;;;;120.18;40.63;;;;;;;1.98;100.00;102821.53;5033189;28;20032;-71
2022/01/19 03:23:43;;;;;;;119.88;40.83;;;;;;;2.12;100.00;102819.72;5033117;28;20041;-70
2022/01/19 03:26:08;;;;;;;131.35;43.25;;;;;;;2.03;100.00;102821.75;5028741;28;20758;-70
2022/01/19 03:28:47;;;;;;;126.55;42.28;;;;;;;2.01;100.00;102814.91;5012871;28;20585;-70
2022/01/19 03:31:14;;;;;;;116.10;38.38;;;;;;;2.00;100.00;102810.53;5012590;28;20033;-71
2022/01/19 03:33:40;;;;;;;115.18;39.00;;;;;;;2.02;100.00;102803.13;5012417;28;20040;-70
2022/01/19 03:36:06;;;;;;;104.70;36.47;;;;;;;1.89;100.00;102793.13;5012369;28;20480;-70
2022/01/19 03:38:33;;;;;;;98.95;35.50;;;;;;;1.88;100.00;102801.38;5029568;28;20114;-70
2022/01/19 03:40:58;;;;;;;102.82;36.92;;;;;;;1.85;100.00;102791.00;5029307;28;20488;-70
2022/01/19 03:43:24;;;;;;;97.53;34.22;;;;;;;1.86;100.00;102793.47;5029013;28;20037;-70
2022/01/19 03:45:58;;;;;;;87.77;33.03;;;;;;;1.93;100.00;102782.78;5030310;28;20045;-70
2022/01/19 03:50:59;;;;;;;79.53;31.23;;;;;;;1.91;100.00;102769.50;5034195;28;20076;-71
2022/01/19 03:53:24;;;;;;;89.63;32.25;;;;;;;1.94;100.00;102768.28;5032358;28;20474;-70
2022/01/19 03:55:50;;;;;;;83.13;32.13;;;;;;;1.88;100.00;102763.72;5032450;28;20043;-70
2022/01/19 03:58:15;;;;;;;84.32;31.65;;;;;;;1.85;100.00;102775.69;5031772;28;20082;-70
2022/01/19 04:00:43;;;;;;;77.35;29.98;;;;;;;1.92;100.00;102770.34;5014018;28;20160;-70
2022/01/19 04:03:12;;;;;;;78.30;30.58;;;;;;;1.86;100.00;102771.13;5016360;28;20268;-71
2022/01/19 04:08:16;;;;;;;69.35;27.33;;;;;;;1.72;100.00;102775.63;5014752;28;20517;-70
2022/01/19 04:10:42;;;;;;;74.97;28.33;;;;;;;1.64;100.00;102778.47;5017862;28;20272;-70
2022/01/19 04:15:48;;;;;;;69.95;27.38;;;;;;;1.76;100.00;102756.19;5016100;28;20084;-70
2022/01/19 04:18:14;;;;;;;67.28;26.88;;;;;;;1.63;100.00;102761.50;5015087;28;20092;-70
2022/01/19 04:20:42;;;;;;;62.88;27.63;;;;;;;1.52;100.00;102759.34;5015967;28;20041;-70
2022/01/19 04:23:07;;;;;;;69.88;26.98;;;;;;;1.57;100.00;102756.88;5028630;28;20467;-70
2022/01/19 04:25:33;;;;;;;64.68;25.42;;;;;;;1.58;100.00;102753.19;5056560;28;20055;-70
2022/01/19 04:27:58;;;;;;;62.03;26.42;;;;;;;1.65;100.00;102759.41;5018831;28;20429;-70
2022/01/19 04:30:27;;;;;;;58.58;25.92;;;;;;;1.59;100.00;102758.34;5017011;28;20623;-69
2022/01/19 04:35:29;;;;;;;61.45;27.17;;;;;;;1.67;100.00;102746.63;5019767;28;20108;-70
2022/01/19 04:38:25;;;;;;;68.75;28.42;;;;;;;1.57;100.00;102738.06;5052229;28;20044;-70
2022/01/19 04:54:16;;;;;;;68.45;30.58;;;;;;;1.75;100.00;102708.81;5035784;28;20537;-70
2022/01/19 04:54:27;;;;;;;72.10;31.73;;;;;;;1.93;100.00;102707.44;5031291;28;20464;-70
2022/01/19 05:03:35;;;;;;;68.25;33.03;;;;;;;2.06;100.00;102699.41;5033131;28;20045;-70
2022/01/19 05:06:16;;;;;;;76.50;33.97;;;;;;;1.85;100.00;102694.16;5031354;28;20045;-69
2022/01/19 05:13:52;;;;;;;73.32;34.85;;;;;;;2.09;100.00;102699.00;5031019;28;20055;-70
2022/01/19 05:16:23;;;;;;;69.25;34.38;;;;;;;2.23;100.00;102702.59;5030464;28;20045;-70
2022/01/19 05:18:50;;;;;;;72.78;34.20;;;;;;;2.34;100.00;102709.25;5030788;28;20037;-70
2022/01/19 05:21:17;;;;;;;76.07;35.35;;;;;;;2.43;100.00;102716.13;5014410;28;20506;-71
2022/01/19 05:24:18;;;;;;;66.03;34.75;;;;;;;2.47;100.00;102704.75;5031904;28;20033;-70
2022/01/19 05:27:07;;;;;;;79.93;35.63;;;;;;;2.46;100.00;102702.25;5022355;28;20127;-71
2022/01/19 05:29:34;;;;;;;69.50;35.47;;;;;;;2.56;100.00;102707.22;5031241;28;20048;-70
2022/01/19 05:31:59;;;;;;;72.05;35.38;;;;;;;2.63;100.00;102708.91;5031003;28;20044;-70
2022/01/19 05:34:25;;;;;;;70.78;34.50;;;;;;;2.70;100.00;102709.72;5029470;28;20088;-71
2022/01/19 05:36:59;;;;;;;66.35;34.38;;;;;;;2.71;100.00;102727.56;5030161;28;20033;-70
2022/01/19 05:39:41;;;;;;;65.38;34.00;;;;;;;2.68;100.00;102709.13;5030939;28;20206;-70
2022/01/19 05:42:16;;;;;;;64.18;32.53;;;;;;;2.55;100.00;102697.50;5030206;28;20045;-70
2022/01/19 05:44:47;;;;;;;61.58;32.70;;;;;;;2.72;100.00;102691.50;5010365;28;20049;-70
2022/01/19 05:47:14;;;;;;;65.00;32.47;;;;;;;2.63;100.00;102692.75;5010700;28;20418;-70
2022/01/19 05:49:43;;;;;;;70.53;33.15;;;;;;;2.58;100.00;102673.66;4993691;28;20738;-70
2022/01/19 05:52:09;;;;;;;66.97;32.42;;;;;;;2.56;100.00;102658.75;5010514;28;20213;-70
2022/01/19 05:54:34;;;;;;;63.33;31.10;;;;;;;2.45;100.00;102662.91;5010985;28;20038;-70
2022/01/19 05:57:00;;;;;;;71.25;34.38;;;;;;;2.38;100.00;102657.47;5010574;28;21014;-70
2022/01/19 05:59:35;;;;;;;70.72;33.60;;;;;;;2.36;100.00;102658.75;4998572;28;20049;-70
2022/01/19 06:02:00;;;;;;;74.78;35.75;;;;;;;2.31;100.00;102655.81;4990883;28;20496;-70
2022/01/19 06:04:25;;;;;;;79.47;34.15;;;;;;;2.24;100.00;102656.66;4990529;28;20049;-69
2022/01/19 06:07:12;;;;;;;88.03;36.33;;;;;;;2.43;100.00;102651.50;4994359;28;20054;-70
2022/01/19 06:10:06;;;;;;;89.53;36.78;;;;;;;2.42;100.00;102660.63;4994628;28;20520;-70
2022/01/19 06:12:38;;;;;;;83.55;37.08;;;;;;;2.40;100.00;102662.66;4991995;28;20183;-70
2022/01/19 06:15:05;;;;;;;86.55;36.40;;;;;;;2.43;100.00;102644.25;4993793;28;20049;-70
2022/01/19 06:17:30;;;;;;;91.95;37.95;;;;;;;2.52;100.00;102658.34;4995539;28;20168;-70
2022/01/19 06:19:57;;;;;;;99.25;38.92;;;;;;;2.59;100.00;102652.94;5023656;28;20092;-71
2022/01/19 06:22:22;;;;;;;102.15;40.53;;;;;;;2.47;100.00;102660.81;4975422;28;20566;-71
2022/01/19 06:24:48;;;;;;;103.80;41.75;;;;;;;2.57;100.00;102647.78;4995437;28;20041;-70
2022/01/19 06:27:15;;;;;;;105.82;42.72;;;;;;;2.53;100.00;102643.84;5011249;28;20045;-70
2022/01/19 06:29:40;;;;;;;113.88;44.28;;;;;;;2.50;100.00;102638.84;4992295;28;20510;-73
2022/01/19 06:32:06;;;;;;;111.25;46.67;;;;;;;2.43;100.00;102632.66;5009722;28;20138;-71
2022/01/19 06:34:32;;;;;;;115.45;44.72;;;;;;;2.52;100.00;102620.63;5013680;28;20061;-70
2022/01/19 06:37:16;;;;;;;120.18;46.00;;;;;;;2.54;100.00;102620.44;5014572;28;20048;-69
2022/01/19 06:39:47;;;;;;;117.40;46.38;;;;;;;2.52;100.00;102615.25;5012034;28;20103;-70
2022/01/19 06:42:13;;;;;;;118.10;43.75;;;;;;;2.57;100.00;102612.78;5011901;28;20375;-71
2022/01/19 06:44:40;;;;;;;109.47;43.00;;;;;;;2.55;100.00;102612.13;5012791;28;20049;-71
2022/01/19 06:47:05;;;;;;;107.03;43.17;;;;;;;2.63;100.00;102611.94;5013052;28;20541;-71
2022/01/19 06:49:31;;;;;;;111.32;42.05;;;;;;;2.57;100.00;102611.94;5005551;28;20050;-71
2022/01/19 06:51:57;;;;;;;117.30;44.03;;;;;;;2.57;100.00;102603.88;4993088;28;20045;-70
2022/01/19 06:54:23;;;;;;;107.63;43.28;;;;;;;2.51;100.00;102597.44;5000020;28;20325;-70
2022/01/19 06:56:48;;;;;;;109.72;43.28;;;;;;;2.53;100.00;102590.00;5002233;28;20638;-70
2022/01/19 06:59:22;;;;;;;116.60;40.88;;;;;;;2.39;100.00;102588.34;4997121;28;20060;-71
2022/01/19 07:02:11;;;;;;;109.65;42.40;;;;;;;2.36;100.00;102588.75;5012798;28;20079;-70
2022/01/19 07:04:51;;;;;;;111.25;43.67;;;;;;;2.50;100.00;102598.47;4998035;28;20496;-72
2022/01/19 07:07:30;;;;;;;110.32;43.40;;;;;;;2.52;100.00;102592.88;5013717;28;20276;-71
2022/01/19 07:10:02;;;;;;;115.60;42.95;;;;;;;2.51;100.00;102591.25;5012921;28;20072;-69
2022/01/19 07:12:29;;;;;;;113.15;45.05;;;;;;;2.49;100.00;102594.13;5012738;28;20038;-71
2022/01/19 07:14:55;;;;;;;111.80;45.33;;;;;;;2.46;100.00;102583.75;5013075;28;20446;-69
2022/01/19 07:17:20;;;;;;;108.65;43.70;;;;;;;2.54;100.00;102580.88;5011180;28;20041;-70
2022/01/19 07:19:46;;;;;;;107.20;42.67;;;;;;;2.53;100.00;102575.69;5012010;28;20038;-71
2022/01/19 07:22:15;;;;;;;105.18;44.00;;;;;;;2.36;100.00;102567.22;4995131;28;20034;-71
2022/01/19 07:24:41;;;;;;;108.28;42.30;;;;;;;2.45;100.00;102568.66;5010399;28;20041;-71
2022/01/19 07:27:07;;;;;;;98.95;41.03;;;;;;;2.47;100.00;102559.34;4998973;28;20452;-70
2022/01/19 07:29:32;;;;;;;108.40;44.28;;;;;;;2.52;100.00;102556.00;4976667;28;20372;-70
2022/01/19 07:31:59;;;;;;;109.90;41.65;;;;;;;2.54;100.00;102574.66;5000548;28;20037;-70
2022/01/19 07:34:29;;;;;;;95.35;39.65;;;;;;;2.45;100.00;102568.66;5008414;28;20771;-70
2022/01/19 07:36:55;;;;;;;99.05;40.53;;;;;;;2.43;100.00;102562.63;4992047;28;20073;-71
2022/01/19 07:39:22;;;;;;;102.22;40.38;;;;;;;2.35;100.00;102560.16;5001074;28;20367;-70
2022/01/19 07:41:50;;;;;;;105.25;41.40;;;;;;;2.45;100.00;102565.97;5011819;28;20080;-70
2022/01/19 07:44:39;;;;;;;99.80;40.35;;;;;;;2.51;100.00;102559.75;5012041;28;20057;-70
2022/01/19 07:47:27;;;;;;;99.90;41.58;;;;;;;2.58;100.00;102554.34;5008769;28;20026;-71
2022/01/19 07:50:11;;;;;;;97.20;41.88;;;;;;;2.52;100.00;102566.78;5007984;28;20220;-70
2022/01/19 07:52:40;;;;;;;108.15;44.55;;;;;;;2.55;100.00;102558.28;5009929;28;20583;-71
2022/01/19 07:55:23;;;;;;;93.50;40.55;;;;;;;2.65;100.00;102557.88;5004733;28;20115;-71
2022/01/19 07:58:02;;;;;;;89.57;40.60;;;;;;;2.53;100.00;102551.44;5010678;28;20037;-71
2022/01/19 08:00:44;;;;;;;93.43;40.22;;;;;;;2.54;100.00;102548.56;5009859;28;20120;-70
2022/01/19 08:03:34;;;;;;;95.22;40.45;;;;;;;2.43;100.00;102546.47;5008712;28;20564;-71
2022/01/19 08:06:10;;;;;;;94.60;40.70;;;;;;;2.61;100.00;102553.94;5007272;28;20367;-69
2022/01/19 08:08:37;;;;;;;88.85;38.72;;;;;;;2.56;100.00;102551.88;4990702;28;20407;-70
2022/01/19 08:11:03;;;;;;;96.18;39.92;;;;;;;2.54;100.00;102543.16;5004258;28;20076;-71
2022/01/19 08:13:31;;;;;;;99.88;40.67;;;;;;;2.59;100.00;102556.84;5010464;28;20140;-70
2022/01/19 08:15:58;;;;;;;96.13;39.60;;;;;;;2.62;100.00;102545.66;5008012;28;20036;-71
2022/01/19 08:18:24;;;;;;;85.53;38.47;;;;;;;2.67;100.00;102543.13;5005579;28;20613;-71
2022/01/19 08:20:50;;;;;;;87.75;39.67;;;;;;;2.62;100.00;102540.28;5009345;28;20049;-69
2022/01/19 08:23:17;;;;;;;90.55;39.58;;;;;;;2.64;100.00;102534.66;5004301;28;20469;-70
2022/01/19 08:25:52;;;;;;;94.25;39.30;;;;;;;2.72;100.00;102542.53;5006651;28;20038;-71
2022/01/19 08:28:20;;;;;;;81.80;38.72;;;;;;;2.63;100.00;102536.53;5006458;28;20052;-70
2022/01/19 08:30:46;;;;;;;86.40;39.35;;;;;;;2.66;100.00;102530.72;5004445;28;20580;-72
2022/01/19 08:33:15;;;;;;;97.38;39.85;;;;;;;2.67;100.00;102529.66;4983551;28;20458;-70
2022/01/19 08:35:46;;;;;;;83.57;37.20;;;;;;;2.63;100.00;102531.16;5010562;28;20137;-70
2022/01/19 08:38:30;;;;;;;92.90;39.88;;;;;;;2.70;100.00;102529.25;5008874;28;20056;-70
2022/01/19 08:41:09;;;;;;;96.38;39.67;;;;;;;2.69;100.00;102537.56;5009048;28;20478;-69
2022/01/19 08:43:36;;;;;;;96.30;40.97;;;;;;;2.75;100.00;102538.59;5009487;28;20457;-70
2022/01/19 08:46:02;;;;;;;87.60;39.88;;;;;;;2.64;100.00;102530.09;5008423;28;20072;-71
2022/01/19 08:48:46;;;;;;;90.10;39.58;;;;;;;2.74;100.00;102523.47;5008408;28;20540;-70
2022/01/19 08:51:27;;;;;;;94.30;40.22;;;;;;;2.68;100.00;102528.66;5003326;28;20131;-70
2022/01/19 08:53:59;;;;;;;96.28;41.97;;;;;;;2.62;100.00;102518.72;5005938;28;20036;-70
2022/01/19 08:56:47;;;;;;;86.80;39.95;;;;;;;2.74;100.00;102504.63;5003981;28;20528;-70
2022/01/19 08:59:14;;;;;;;94.85;40.42;;;;;;;2.68;100.00;102507.09;5002404;28;20064;-70
2022/01/19 09:01:39;;;;;;;96.20;40.45;;;;;;;2.76;100.00;102506.03;4999015;28;20041;-70
2022/01/19 09:04:05;;;;;;;88.65;39.88;;;;;;;2.82;100.00;102496.28;5007960;28;20049;-69
2022/01/19 09:06:30;;;;;;;89.18;39.53;;;;;;;2.79;100.00;102492.16;5010166;28;20250;-72
2022/01/19 09:08:56;;;;;;;89.80;40.00;;;;;;;2.76;100.00;102489.06;5011090;28;20110;-69
2022/01/19 09:11:22;;;;;;;83.63;37.88;;;;;;;2.84;100.00;102486.97;5009664;28;20052;-69
2022/01/19 09:13:49;;;;;;;95.88;40.78;;;;;;;2.85;100.00;102477.00;5012199;28;20041;-71
2022/01/19 09:16:14;;;;;;;80.13;36.28;;;;;;;3.01;100.00;102479.25;5012134;28;20067;-70
2022/01/19 09:18:40;;;;;;;74.82;37.70;;;;;;;2.93;100.00;102474.91;5011444;28;20497;-70
2022/01/19 09:21:05;;;;;;;81.25;35.78;;;;;;;2.95;100.00;102466.63;5011097;28;20041;-71
2022/01/19 09:23:31;;;;;;;81.78;36.80;;;;;;;2.92;100.00;102461.66;5012396;28;20513;-71
2022/01/19 09:25:56;;;;;;;86.20;37.03;;;;;;;2.92;100.00;102465.19;5008950;28;20038;-71
2022/01/19 09:28:22;;;;;;;81.30;37.13;;;;;;;3.05;100.00;102456.19;4993279;28;20057;-71
2022/01/19 09:30:48;;;;;;;89.85;38.97;;;;;;;2.89;100.00;102462.09;4992406;28;20164;-71
2022/01/19 09:33:24;;;;;;;80.43;37.83;;;;;;;2.99;100.00;102462.44;5000441;28;20335;-71
2022/01/19 09:38:27;;;;;;;75.70;37.08;;;;;;;3.03;100.00;102455.63;4993455;28;20038;-71
2022/01/19 09:40:53;;;;;;;83.95;37.88;;;;;;;2.94;100.00;102462.28;5011489;28;20525;-71
2022/01/19 09:43:22;;;;;;;91.35;39.17;;;;;;;3.04;100.00;102456.44;5013164;28;20187;-71
2022/01/19 09:45:49;;;;;;;81.03;36.85;;;;;;;3.00;100.00;102455.22;5003020;28;20034;-70
2022/01/19 09:48:15;;;;;;;90.18;36.70;;;;;;;3.01;100.00;102446.09;4996848;28;20092;-70
2022/01/19 09:50:40;;;;;;;84.63;38.13;;;;;;;2.93;100.00;102449.84;5001486;28;20503;-71
2022/01/19 09:53:07;;;;;;;80.38;38.60;;;;;;;2.93;100.00;102439.06;4998278;28;20046;-71
2022/01/19 09:55:34;;;;;;;84.15;36.42;;;;;;;3.08;100.00;102436.91;4998626;28;20060;-69
2022/01/19 09:57:59;;;;;;;83.18;38.28;;;;;;;3.02;100.00;102427.00;5004931;28;20037;-71
2022/01/19 10:00:25;;;;;;;79.93;36.45;;;;;;;3.13;100.00;102425.50;5015601;28;20349;-71
2022/01/19 10:03:17;;;;;;;85.93;40.83;;;;;;;3.17;100.00;102419.47;5015461;28;20353;-71
2022/01/19 10:06:10;;;;;;;74.55;34.92;;;;;;;3.11;100.00;102414.94;5001530;28;20037;-71
2022/01/19 10:08:41;;;;;;;83.95;37.25;;;;;;;3.18;100.00;102414.91;4996627;28;20050;-70
2022/01/19 10:11:16;;;;;;;77.65;36.17;;;;;;;3.18;100.00;102409.50;4995532;28;20434;-70
2022/01/19 10:16:59;;;;;;;74.97;36.05;;;;;;;3.27;100.00;102402.00;5014577;28;20456;-71
2022/01/19 10:19:28;;;;;;;84.20;38.47;;;;;;;3.27;100.00;102404.69;4998139;28;20119;-71
2022/01/19 10:22:17;;;;;;;74.20;36.35;;;;;;;3.24;100.00;102410.53;5009217;28;20028;-70
2022/01/19 10:25:11;;;;;;;78.65;36.42;;;;;;;3.40;100.00;102410.00;5004402;28;20030;-69
2022/01/19 10:27:42;;;;;;;77.25;35.22;;;;;;;3.34;100.00;102413.56;5000185;28;20330;-69
2022/01/19 10:30:08;;;;;;;70.97;35.65;;;;;;;3.30;100.00;102388.09;4994589;28;20049;-73
2022/01/19 10:32:33;;;;;;;73.82;33.78;;;;;;;3.24;100.00;102381.69;5010465;28;20377;-69
2022/01/19 10:35:12;;;;;;;74.20;34.90;;;;;;;3.50;100.00;102383.38;4996128;28;20037;-70
2022/01/19 10:37:37;;;;;;;75.03;34.33;;;;;;;3.55;100.00;102385.41;4997385;28;20502;-70
2022/01/19 10:40:03;;;;;;;68.78;33.10;;;;;;;3.58;100.00;102383.13;4994213;28;20361;-70
2022/01/19 10:42:31;;;;;;;75.45;34.53;;;;;;;3.60;100.00;102389.09;4994361;28;20034;-70
2022/01/19 10:45:08;;;;;;;67.85;31.38;;;;;;;3.57;100.00;102380.63;5010523;28;20044;-71
2022/01/19 10:47:44;;;;;;;73.35;33.58;;;;;;;3.59;100.00;102368.56;5012393;28;20455;-71
2022/01/19 10:50:21;;;;;;;76.82;33.63;;;;;;;3.63;100.00;102364.38;5011528;28;20221;-70
2022/01/19 10:52:47;;;;;;;71.35;32.28;;;;;;;3.58;100.00;102358.03;5012861;28;20041;-71
2022/01/19 10:55:40;;;;;;;66.50;32.13;;;;;;;3.65;100.00;102347.19;5010458;28;20402;-70
2022/01/19 10:58:11;;;;;;;;;;;;;;;3.69;100.00;102342.97;4995377;28;20042;-71
2022/01/19 11:00:36;;;;;;;63.58;30.23;;;;;;;3.70;100.00;102341.94;4999829;28;19928;-71
2022/01/19 11:03:19;;;;;;;63.05;30.77;;;;;;;3.65;100.00;102339.09;5011614;28;20049;-69
2022/01/19 11:05:51;;;;;;;66.80;31.33;;;;;;;3.64;100.00;102335.56;5014999;28;20045;-69
2022/01/19 11:08:19;;;;;;;66.10;29.85;;;;;;;3.87;100.00;102332.25;5016789;28;20569;-70
2022/01/19 11:10:49;;;;;;;66.05;31.05;;;;;;;3.87;100.00;102326.84;5013621;28;20156;-70
2022/01/19 11:13:27;;;;;;;64.35;31.00;;;;;;;4.00;100.00;102326.69;5015147;28;20075;-71
2022/01/19 11:15:54;;;;;;;63.85;31.27;;;;;;;3.93;100.00;102315.16;5014319;28;20045;-70
2022/01/19 11:18:21;;;;;;;71.43;31.73;;;;;;;3.81;100.00;102311.53;5009489;28;20566;-72
2022/01/19 11:20:49;;;;;;;63.70;30.92;;;;;;;3.93;100.00;102304.38;4996878;28;20033;-71
2022/01/19 11:23:38;;;;;;;73.18;34.10;;;;;;;4.03;100.00;102304.66;5015901;28;20052;-72
2022/01/19 11:26:12;;;;;;;70.40;33.20;;;;;;;3.98;100.00;102309.91;5009339;28;20109;-71
2022/01/19 11:28:42;;;;;;;67.07;34.00;;;;;;;3.87;100.00;102305.25;4994835;28;20048;-69
2022/01/19 11:31:12;;;;;;;66.95;32.78;;;;;;;4.11;100.00;102300.03;4995464;28;20045;-72
2022/01/19 11:34:04;;;;;;;72.45;32.35;;;;;;;3.99;100.00;102294.56;4995348;28;20072;-70
2022/01/19 11:36:34;;;;;;;67.55;32.72;;;;;;;4.03;100.00;102288.47;4996604;28;20064;-71
2022/01/19 11:39:17;;;;;;;66.93;32.55;;;;;;;4.01;100.00;102298.66;5014387;28;20543;-70
2022/01/19 11:41:47;;;;;;;67.18;30.88;;;;;;;3.98;100.00;102287.47;5014903;28;20224;-69
2022/01/19 11:44:38;;;;;;;68.95;32.40;;;;;;;4.14;100.00;102284.19;5013151;28;20061;-70
2022/01/19 11:47:09;;;;;;;69.57;34.08;;;;;;;3.96;100.00;102281.50;5013635;28;20045;-69
2022/01/19 11:49:55;;;;;;;71.80;33.60;;;;;;;3.94;100.00;102264.69;5013169;28;20040;-71
2022/01/19 11:52:26;;;;;;;79.47;32.70;;;;;;;3.89;100.00;102253.75;5012653;28;20398;-68
2022/01/19 11:55:07;;;;;;;71.70;34.65;;;;;;;3.99;100.00;102248.66;5012543;28;20087;-71
2022/01/19 11:57:33;;;;;;;76.83;34.33;;;;;;;3.99;100.00;102246.78;5010222;28;20422;-71
2022/01/19 12:00:12;;;;;;;77.28;34.60;;;;;;;4.02;100.00;102232.84;5009450;28;20857;-71
2022/01/19 12:02:43;;;;;;;73.68;33.65;;;;;;;4.13;100.00;102222.31;5012647;28;20048;-70
2022/01/19 12:05:09;;;;;;;81.30;35.13;;;;;;;4.04;100.00;102211.84;5000422;28;20539;-70
2022/01/19 12:07:35;;;;;;;73.32;33.90;;;;;;;4.00;100.00;102207.94;5013013;28;20086;-71
2022/01/19 12:10:03;;;;;;;71.15;33.63;;;;;;;4.11;100.00;102200.16;5013592;28;20045;-71
2022/01/19 12:12:32;;;;;;;76.60;33.70;;;;;;;4.11;100.00;102197.44;5012297;28;20561;-72
2022/01/19 12:14:58;;;;;;;75.20;35.03;;;;;;;4.16;100.00;102194.88;5012809;28;20073;-71
2022/01/19 12:17:54;;;;;;;76.75;33.22;;;;;;;4.15;100.00;102187.84;5010793;28;20049;-72
2022/01/19 12:20:51;;;;;;;68.85;34.22;;;;;;;4.17;100.00;102191.13;5012565;28;20111;-69
2022/01/19 12:23:27;;;;;;;70.32;33.55;;;;;;;4.13;100.00;102187.22;5011951;28;20041;-70
2022/01/19 12:25:55;;;;;;;70.53;32.55;;;;;;;4.18;100.00;102181.97;5009500;28;20147;-71
2022/01/19 12:28:46;;;;;;;74.10;34.35;;;;;;;4.09;100.00;102174.19;4993240;28;20041;-69
2022/01/19 12:31:34;;;;;;;78.72;34.70;;;;;;;4.17;100.00;102174.94;4992643;28;20117;-70
2022/01/19 12:34:08;;;;;;;80.68;36.40;;;;;;;4.29;100.00;102178.50;4993262;28;20481;-69
2022/01/19 12:36:47;;;;;;;82.38;36.20;;;;;;;4.11;100.00;102173.16;4991481;28;20218;-69
2022/01/19 12:39:25;;;;;;;79.45;35.22;;;;;;;4.11;100.00;102167.75;4991701;28;20052;-70
2022/01/19 12:41:58;;;;;;;80.38;34.33;;;;;;;4.27;100.00;102165.22;4993462;28;20514;-69
2022/01/19 12:44:42;;;;;;;75.13;35.35;;;;;;;4.39;100.00;102162.56;4992945;28;20653;-70
2022/01/19 12:47:29;;;;;;;84.35;36.60;;;;;;;4.47;100.00;102148.72;5010707;28;20049;-72